KLHW

Wright AAF (Fort Stewart) / Midcoast Regional Airport

Fort Stewart(Hinesville), Georgia, USA
METAR KLHW 212256Z AUTO 27004KT 10SM CLR 34/22 A2980 RMK AO2 SLP094 T03410215 $
Observed Flight Rules
Jun-21 @ 22:56 UTC (58 minutes ago) Visual Flight Rules
Wind Visibility Clouds
270° at 4 knots 10 miles
  • Clear skies
Temperatures Readings
Current 34°C / 93°F
Dewpoint 22°C / 72°F
Humidity 49%
Altimeter 29.8" Hg
Pressure 1009.4 hPa
Elevation 14
METAR KLHW 212256Z AUTO 27004KT 10SM CLR 34/22 A2980 RMK AO2 SLP094 T03410215 $
Observed Flight Rules
Jun-21 @ 22:56 UTC
(58 minutes ago)
VFR
Wind Visibility
270° at 4 knots 10 miles
Clouds
  • Clear skies
Temperature Dewpoint
34°C / 93°F 22°C / 72°F
Humidity Altimeter Pressure
49% 29.8" Hg 1009.4 hPa